Meteo Giornale » Osservazioni meteo Ungheria » Gyor Per

ore: 17:15 - Osservazioni Meteo Gyor Per
Lat. 47° 38' N Lon. 17° 48' E Alt. 129 metri s.l.m.

sereno Europe/Budapest

27 °C

Sereno

Temp. 24 Ore

18 °C

29 °C

Ovest/Sud-Ovest

14.8 Km/h

Dew point 17 °C

Umidità 54 %

Visibilità  10 Km

Il sole sorge alle ore 05:38

Il sole tramonta alle ore 20:09

Data e Ora Cielo e Fenomeni T °C DP °C Um. % Pres. hPa Vis. km Vento km/h
Oggi h: 17:15 sereno Sereno 27 17 54 1017 10 O/SO 14.8
Oggi h: 16:45 sereno Sereno 28 15 45 1017 10 N 3.7
Oggi h: 16:15 sereno Sereno 28 15 45 1017 10 N 3.7
Oggi h: 15:45 sereno Sereno 28 16 48 1017 10 N 1.8
Oggi h: 15:15 sereno Sereno 27 17 54 1017 10 S 11.1
Oggi h: 14:45 sereno Sereno 27 17 54 1017 10 S 18.5
Oggi h: 14:15 molto_nuvoloso Molto Nuvoloso 27 18 57 1018 10 S/SE 24
Oggi h: 13:45 molto_nuvoloso Molto Nuvoloso 27 15 47 1018 10 E/SE 16.7
Oggi h: 13:15 molto_nuvoloso Molto Nuvoloso 26 13 44 1018 10 E 20.3
Oggi h: 12:45 nuvoloso_temporali Temporale nelle Vicinanze 24 18 69 1018 10 NE 25.9
Oggi h: 12:15 nuvoloso_temporali Temporale nelle Vicinanze 26 20 69 1018 10 N 25.9
Oggi h: 11:45 molto_nuvoloso Molto Nuvoloso 26 18 61 1018 10 N 16.7
Oggi h: 11:15 molto_nuvoloso Molto Nuvoloso 26 19 65 1018 10 E/NE 16.7
Oggi h: 10:45 molto_nuvoloso Molto Nuvoloso 26 19 65 1017 10 NE 16.7
Oggi h: 10:15 poco_nuvoloso Poco Nuvoloso 26 18 61 1017 10 N/NE 14.8
Oggi h: 09:45 sereno Sereno 26 17 57 1017 10 N 3.7
Oggi h: 09:15 sereno Sereno 26 18 61 1017 10 S/SO 13
Oggi h: 08:45 nuvoloso Nuvoloso 24 18 69 1017 10 S 14.8
Oggi h: 08:15 sereno Sereno 23 18 73 1017 10 S 9.3
Oggi h: 07:45 poco_nuvoloso Poco Nuvoloso 19 18 93 1017 10 N 3.7
Oggi h: 06:45 sereno Sereno 18 18 100 1017 8 E/SE 7.4
Oggi h: 06:15 sereno Sereno 18 18 100 1017 7 E 7.4
Oggi h: 05:45 sereno Sereno 18 18 100 1017 8 E/NE 7.4
Oggi h: 05:15 molto_nuvoloso Molto Nuvoloso 18 18 100 1017 10 N 5.5
Oggi h: 04:45 molto_nuvoloso Molto Nuvoloso 18 18 100 1017 10 N 0
Oggi h: 04:15 molto_nuvoloso Molto Nuvoloso 18 17 93 1017 10 N 0
Oggi h: 03:45 molto_nuvoloso Molto Nuvoloso 18 17 93 1017 10 N 3.7
Oggi h: 03:15 sereno Sereno 18 17 93 1016 10 N 1.8
Oggi h: 02:45 sereno Sereno 18 18 100 1016 10 N 1.8
Oggi h: 02:15 nuvoloso Nuvoloso 19 17 88 1016 10 E/NE 7.4
Oggi h: 01:45 sereno Sereno 19 18 93 1016 10 N 3.7
Oggi h: 01:15 sereno Sereno 19 18 93 1016 10 N 3.7
Oggi h: 00:45 sereno Sereno 19 17 88 1017 10 N 5.5
Oggi h: 00:15 sereno Sereno 19 17 88 1016 10 N 5.5
Ieri h: 23:45 sereno Sereno 20 17 82 1016 10 N 5.5
Ieri h: 23:15 sereno Sereno 20 17 82 1016 10 NE 9.3
Ieri h: 22:45 sereno Sereno 22 16 68 1016 10 N/NE 13
Ieri h: 22:15 sereno Sereno 22 17 73 1016 10 N 5.5
Ieri h: 21:45 sereno Sereno 22 16 68 1015 10 SE 9.3
Ieri h: 21:15 sereno Sereno 23 17 68 1016 10 SE 11.1
Ieri h: 20:45 sereno Sereno 24 17 64 1015 10 E/SE 18.5
Ieri h: 20:15 nuvoloso Nuvoloso 24 16 60 1016 10 E 18.5
Ieri h: 19:45 coperto_temporali Temporale 25 17 61 1016 10 E 20.3
Ieri h: 19:15 nuvoloso Nuvoloso 25 17 61 1016 10 NE 31.5
Ieri h: 18:45 sereno Sereno 29 17 48 1015 10 E 16.7